sensor_id;sensor_type;location;lat;lon;timestamp;temperature;humidity
18103;DHT22;9178;51.120;6.192;2023-10-09T00:02:07;14.30;99.90
18103;DHT22;9178;51.120;6.192;2023-10-09T00:04:34;14.30;99.90
18103;DHT22;9178;51.120;6.192;2023-10-09T00:07:02;14.30;99.90
18103;DHT22;9178;51.120;6.192;2023-10-09T00:09:33;14.20;99.90
18103;DHT22;9178;51.120;6.192;2023-10-09T00:12:14;14.20;99.90
18103;DHT22;9178;51.120;6.192;2023-10-09T00:14:42;14.20;99.90
18103;DHT22;9178;51.120;6.192;2023-10-09T00:17:14;14.10;99.90
18103;DHT22;9178;51.120;6.192;2023-10-09T00:19:44;14.10;99.90
18103;DHT22;9178;51.120;6.192;2023-10-09T00:22:13;14.10;99.90
18103;DHT22;9178;51.120;6.192;2023-10-09T00:24:52;14.10;99.90
18103;DHT22;9178;51.120;6.192;2023-10-09T00:27:37;14.00;99.90
18103;DHT22;9178;51.120;6.192;2023-10-09T00:30:09;14.00;99.90
18103;DHT22;9178;51.120;6.192;2023-10-09T00:32:37;14.00;99.90
18103;DHT22;9178;51.120;6.192;2023-10-09T00:35:11;14.00;99.90
18103;DHT22;9178;51.120;6.192;2023-10-09T00:37:54;13.90;99.90
18103;DHT22;9178;51.120;6.192;2023-10-09T00:40:30;13.90;99.90
18103;DHT22;9178;51.120;6.192;2023-10-09T00:43:01;13.90;99.90
18103;DHT22;9178;51.120;6.192;2023-10-09T00:45:32;13.80;99.90
18103;DHT22;9178;51.120;6.192;2023-10-09T00:48:05;13.80;99.90
18103;DHT22;9178;51.120;6.192;2023-10-09T00:50:35;13.90;99.90
18103;DHT22;9178;51.120;6.192;2023-10-09T00:53:05;13.90;99.90
18103;DHT22;9178;51.120;6.192;2023-10-09T00:55:38;13.90;99.90
18103;DHT22;9178;51.120;6.192;2023-10-09T00:58:13;13.90;99.90
18103;DHT22;9178;51.120;6.192;2023-10-09T01:00:41;13.90;99.90
18103;DHT22;9178;51.120;6.192;2023-10-09T01:03:19;14.00;99.90
18103;DHT22;9178;51.120;6.192;2023-10-09T01:05:49;14.00;99.90
18103;DHT22;9178;51.120;6.192;2023-10-09T01:08:23;14.00;99.90
18103;DHT22;9178;51.120;6.192;2023-10-09T01:10:55;14.00;99.90
18103;DHT22;9178;51.120;6.192;2023-10-09T01:13:25;14.00;99.90
18103;DHT22;9178;51.120;6.192;2023-10-09T01:16:05;14.00;99.90
18103;DHT22;9178;51.120;6.192;2023-10-09T01:18:33;14.10;99.90
18103;DHT22;9178;51.120;6.192;2023-10-09T01:21:06;14.10;99.90
18103;DHT22;9178;51.120;6.192;2023-10-09T01:23:34;14.10;99.90
18103;DHT22;9178;51.120;6.192;2023-10-09T01:26:10;14.20;99.90
18103;DHT22;9178;51.120;6.192;2023-10-09T01:28:37;14.20;99.90
18103;DHT22;9178;51.120;6.192;2023-10-09T01:31:04;14.20;99.90
18103;DHT22;9178;51.120;6.192;2023-10-09T01:33:32;14.20;99.90
18103;DHT22;9178;51.120;6.192;2023-10-09T01:36:02;14.20;99.90
18103;DHT22;9178;51.120;6.192;2023-10-09T01:38:31;14.20;99.90
18103;DHT22;9178;51.120;6.192;2023-10-09T01:41:11;14.30;99.90
18103;DHT22;9178;51.120;6.192;2023-10-09T01:43:45;14.30;99.90
18103;DHT22;9178;51.120;6.192;2023-10-09T01:46:21;14.30;99.90
18103;DHT22;9178;51.120;6.192;2023-10-09T01:48:48;14.30;99.90
18103;DHT22;9178;51.120;6.192;2023-10-09T01:51:15;14.30;99.90
18103;DHT22;9178;51.120;6.192;2023-10-09T01:53:43;14.40;99.90
18103;DHT22;9178;51.120;6.192;2023-10-09T01:56:14;14.40;99.90
18103;DHT22;9178;51.120;6.192;2023-10-09T01:58:42;14.40;99.90
18103;DHT22;9178;51.120;6.192;2023-10-09T02:01:13;14.40;99.90
18103;DHT22;9178;51.120;6.192;2023-10-09T02:03:41;14.40;99.90
18103;DHT22;9178;51.120;6.192;2023-10-09T02:06:09;14.40;99.90
18103;DHT22;9178;51.120;6.192;2023-10-09T02:08:53;14.40;99.90
18103;DHT22;9178;51.120;6.192;2023-10-09T02:11:23;14.40;99.90
18103;DHT22;9178;51.120;6.192;2023-10-09T02:14:10;14.40;99.90
18103;DHT22;9178;51.120;6.192;2023-10-09T02:16:45;14.40;99.90
18103;DHT22;9178;51.120;6.192;2023-10-09T02:19:28;14.40;99.90
18103;DHT22;9178;51.120;6.192;2023-10-09T02:22:00;14.40;99.90
18103;DHT22;9178;51.120;6.192;2023-10-09T02:24:38;14.50;99.90
18103;DHT22;9178;51.120;6.192;2023-10-09T02:27:25;14.50;99.90
18103;DHT22;9178;51.120;6.192;2023-10-09T02:30:12;14.50;99.90
18103;DHT22;9178;51.120;6.192;2023-10-09T02:32:44;14.40;99.90
18103;DHT22;9178;51.120;6.192;2023-10-09T02:35:14;14.50;99.90
18103;DHT22;9178;51.120;6.192;2023-10-09T02:37:47;14.50;99.90
18103;DHT22;9178;51.120;6.192;2023-10-09T02:40:14;14.50;99.90
18103;DHT22;9178;51.120;6.192;2023-10-09T02:42:50;14.50;99.90
18103;DHT22;9178;51.120;6.192;2023-10-09T02:45:17;14.50;99.90
18103;DHT22;9178;51.120;6.192;2023-10-09T02:47:50;14.50;99.90
18103;DHT22;9178;51.120;6.192;2023-10-09T02:50:17;14.50;99.90
18103;DHT22;9178;51.120;6.192;2023-10-09T02:52:48;14.50;99.90
18103;DHT22;9178;51.120;6.192;2023-10-09T02:55:19;14.60;99.90
18103;DHT22;9178;51.120;6.192;2023-10-09T02:57:54;14.60;99.90
18103;DHT22;9178;51.120;6.192;2023-10-09T03:00:31;14.60;99.90
18103;DHT22;9178;51.120;6.192;2023-10-09T03:03:03;14.60;99.90
18103;DHT22;9178;51.120;6.192;2023-10-09T03:05:32;14.60;99.90
18103;DHT22;9178;51.120;6.192;2023-10-09T03:08:00;14.70;99.90
18103;DHT22;9178;51.120;6.192;2023-10-09T03:10:27;14.60;99.90
18103;DHT22;9178;51.120;6.192;2023-10-09T03:12:56;14.70;99.90
18103;DHT22;9178;51.120;6.192;2023-10-09T03:15:28;14.70;99.90
18103;DHT22;9178;51.120;6.192;2023-10-09T03:18:01;14.70;99.90
18103;DHT22;9178;51.120;6.192;2023-10-09T03:20:30;14.70;99.90
18103;DHT22;9178;51.120;6.192;2023-10-09T03:22:57;14.70;99.90
18103;DHT22;9178;51.120;6.192;2023-10-09T03:25:27;14.70;99.90
18103;DHT22;9178;51.120;6.192;2023-10-09T03:27:54;14.70;99.90
18103;DHT22;9178;51.120;6.192;2023-10-09T03:30:23;14.70;99.90
18103;DHT22;9178;51.120;6.192;2023-10-09T03:32:52;14.70;99.90
18103;DHT22;9178;51.120;6.192;2023-10-09T03:35:20;14.80;99.90
18103;DHT22;9178;51.120;6.192;2023-10-09T03:37:55;14.80;99.90
18103;DHT22;9178;51.120;6.192;2023-10-09T03:40:25;14.80;99.90
18103;DHT22;9178;51.120;6.192;2023-10-09T03:42:53;14.80;99.90
18103;DHT22;9178;51.120;6.192;2023-10-09T03:45:23;14.80;99.90
18103;DHT22;9178;51.120;6.192;2023-10-09T03:47:53;14.80;99.90
18103;DHT22;9178;51.120;6.192;2023-10-09T03:50:27;14.80;99.90
18103;DHT22;9178;51.120;6.192;2023-10-09T03:53:02;14.80;99.90
18103;DHT22;9178;51.120;6.192;2023-10-09T03:55:32;14.80;99.90
18103;DHT22;9178;51.120;6.192;2023-10-09T03:57:59;14.90;99.90
18103;DHT22;9178;51.120;6.192;2023-10-09T04:00:28;14.80;99.90
18103;DHT22;9178;51.120;6.192;2023-10-09T04:02:57;14.90;99.90
18103;DHT22;9178;51.120;6.192;2023-10-09T04:05:25;14.80;99.90
18103;DHT22;9178;51.120;6.192;2023-10-09T04:07:54;14.80;99.90
18103;DHT22;9178;51.120;6.192;2023-10-09T04:10:24;14.80;99.90
18103;DHT22;9178;51.120;6.192;2023-10-09T04:13:16;14.90;99.90
18103;DHT22;9178;51.120;6.192;2023-10-09T04:15:49;14.90;99.90
18103;DHT22;9178;51.120;6.192;2023-10-09T04:18:19;14.80;99.90
18103;DHT22;9178;51.120;6.192;2023-10-09T04:20:54;14.90;99.90
18103;DHT22;9178;51.120;6.192;2023-10-09T04:23:39;14.90;99.90
18103;DHT22;9178;51.120;6.192;2023-10-09T04:26:20;14.90;99.90
18103;DHT22;9178;51.120;6.192;2023-10-09T04:28:46;14.90;99.90
18103;DHT22;9178;51.120;6.192;2023-10-09T04:31:19;14.90;99.90
18103;DHT22;9178;51.120;6.192;2023-10-09T04:33:48;14.90;99.90
18103;DHT22;9178;51.120;6.192;2023-10-09T04:36:23;14.90;99.90
18103;DHT22;9178;51.120;6.192;2023-10-09T04:38:54;14.80;99.90
18103;DHT22;9178;51.120;6.192;2023-10-09T04:41:44;14.90;99.90
18103;DHT22;9178;51.120;6.192;2023-10-09T04:44:40;14.90;99.90
18103;DHT22;9178;51.120;6.192;2023-10-09T04:47:18;14.90;99.90
18103;DHT22;9178;51.120;6.192;2023-10-09T04:49:51;14.90;99.90
18103;DHT22;9178;51.120;6.192;2023-10-09T04:52:27;14.90;99.90
18103;DHT22;9178;51.120;6.192;2023-10-09T04:55:08;14.90;99.90
18103;DHT22;9178;51.120;6.192;2023-10-09T04:57:46;14.80;99.90
18103;DHT22;9178;51.120;6.192;2023-10-09T05:00:14;14.80;99.90
18103;DHT22;9178;51.120;6.192;2023-10-09T05:03:03;14.80;99.90
18103;DHT22;9178;51.120;6.192;2023-10-09T05:05:50;14.80;99.90
18103;DHT22;9178;51.120;6.192;2023-10-09T05:08:25;14.80;99.90
18103;DHT22;9178;51.120;6.192;2023-10-09T05:10:56;14.80;99.90
18103;DHT22;9178;51.120;6.192;2023-10-09T05:13:41;14.80;99.90
18103;DHT22;9178;51.120;6.192;2023-10-09T05:16:23;14.80;99.90
18103;DHT22;9178;51.120;6.192;2023-10-09T05:18:53;14.80;99.90
18103;DHT22;9178;51.120;6.192;2023-10-09T05:21:22;14.70;99.90
18103;DHT22;9178;51.120;6.192;2023-10-09T05:24:11;14.70;99.90
18103;DHT22;9178;51.120;6.192;2023-10-09T05:26:46;14.70;99.90
18103;DHT22;9178;51.120;6.192;2023-10-09T05:29:18;14.80;99.90
18103;DHT22;9178;51.120;6.192;2023-10-09T05:32:01;14.70;99.90
18103;DHT22;9178;51.120;6.192;2023-10-09T05:34:33;14.80;99.90
18103;DHT22;9178;51.120;6.192;2023-10-09T05:36:59;14.70;99.90
18103;DHT22;9178;51.120;6.192;2023-10-09T05:39:44;14.80;99.90
18103;DHT22;9178;51.120;6.192;2023-10-09T05:42:23;14.70;99.90
18103;DHT22;9178;51.120;6.192;2023-10-09T05:44:55;14.80;99.90
18103;DHT22;9178;51.120;6.192;2023-10-09T05:47:41;14.80;99.90
18103;DHT22;9178;51.120;6.192;2023-10-09T05:50:20;14.80;99.90
18103;DHT22;9178;51.120;6.192;2023-10-09T05:53:00;14.70;99.90
18103;DHT22;9178;51.120;6.192;2023-10-09T05:55:56;14.80;99.90
18103;DHT22;9178;51.120;6.192;2023-10-09T05:58:41;14.80;99.90
18103;DHT22;9178;51.120;6.192;2023-10-09T06:01:25;14.80;99.90
18103;DHT22;9178;51.120;6.192;2023-10-09T06:04:10;14.70;99.90
18103;DHT22;9178;51.120;6.192;2023-10-09T06:06:44;14.80;99.90
18103;DHT22;9178;51.120;6.192;2023-10-09T06:09:11;14.80;99.90
18103;DHT22;9178;51.120;6.192;2023-10-09T06:11:56;14.80;99.90
18103;DHT22;9178;51.120;6.192;2023-10-09T06:14:43;14.80;99.90
18103;DHT22;9178;51.120;6.192;2023-10-09T06:17:15;14.80;99.90
18103;DHT22;9178;51.120;6.192;2023-10-09T06:19:50;14.80;99.90
18103;DHT22;9178;51.120;6.192;2023-10-09T06:22:25;14.90;99.90
18103;DHT22;9178;51.120;6.192;2023-10-09T06:25:09;14.90;99.90
18103;DHT22;9178;51.120;6.192;2023-10-09T06:27:37;14.90;99.90
18103;DHT22;9178;51.120;6.192;2023-10-09T06:30:21;14.90;99.90
18103;DHT22;9178;51.120;6.192;2023-10-09T06:32:51;15.00;99.90
18103;DHT22;9178;51.120;6.192;2023-10-09T06:35:23;15.00;99.90
18103;DHT22;9178;51.120;6.192;2023-10-09T06:37:58;15.00;99.90
18103;DHT22;9178;51.120;6.192;2023-10-09T06:40:48;15.00;99.90
18103;DHT22;9178;51.120;6.192;2023-10-09T06:43:33;15.00;99.90
18103;DHT22;9178;51.120;6.192;2023-10-09T06:46:15;15.10;99.90
18103;DHT22;9178;51.120;6.192;2023-10-09T06:49:09;15.10;99.90
18103;DHT22;9178;51.120;6.192;2023-10-09T06:51:54;15.10;99.90
18103;DHT22;9178;51.120;6.192;2023-10-09T06:54:40;15.20;99.90
18103;DHT22;9178;51.120;6.192;2023-10-09T06:57:16;15.20;99.90
18103;DHT22;9178;51.120;6.192;2023-10-09T07:00:03;15.20;99.90
18103;DHT22;9178;51.120;6.192;2023-10-09T07:02:56;15.30;99.90
18103;DHT22;9178;51.120;6.192;2023-10-09T07:05:23;15.30;99.90
18103;DHT22;9178;51.120;6.192;2023-10-09T07:07:57;15.30;99.90
18103;DHT22;9178;51.120;6.192;2023-10-09T07:10:46;15.40;99.90
18103;DHT22;9178;51.120;6.192;2023-10-09T07:13:28;15.40;99.90
18103;DHT22;9178;51.120;6.192;2023-10-09T07:16:02;15.40;99.90
18103;DHT22;9178;51.120;6.192;2023-10-09T07:18:49;15.50;99.90
18103;DHT22;9178;51.120;6.192;2023-10-09T07:21:20;15.50;99.90
18103;DHT22;9178;51.120;6.192;2023-10-09T07:23:55;15.50;99.90
18103;DHT22;9178;51.120;6.192;2023-10-09T07:26:27;15.50;99.90
18103;DHT22;9178;51.120;6.192;2023-10-09T07:29:12;15.50;99.90
18103;DHT22;9178;51.120;6.192;2023-10-09T07:31:42;15.50;99.90
18103;DHT22;9178;51.120;6.192;2023-10-09T07:34:11;15.50;99.90
18103;DHT22;9178;51.120;6.192;2023-10-09T07:37:04;15.50;99.90
18103;DHT22;9178;51.120;6.192;2023-10-09T07:39:31;15.60;99.90
18103;DHT22;9178;51.120;6.192;2023-10-09T07:42:04;15.60;99.90
18103;DHT22;9178;51.120;6.192;2023-10-09T07:44:59;15.60;99.90
18103;DHT22;9178;51.120;6.192;2023-10-09T07:47:37;15.60;99.90
18103;DHT22;9178;51.120;6.192;2023-10-09T07:50:26;15.70;99.90
18103;DHT22;9178;51.120;6.192;2023-10-09T07:53:04;15.70;99.90
18103;DHT22;9178;51.120;6.192;2023-10-09T07:55:44;15.70;99.90
18103;DHT22;9178;51.120;6.192;2023-10-09T07:58:21;15.80;99.90
18103;DHT22;9178;51.120;6.192;2023-10-09T08:00:52;15.80;99.90
18103;DHT22;9178;51.120;6.192;2023-10-09T08:03:48;15.90;99.90
18103;DHT22;9178;51.120;6.192;2023-10-09T08:06:24;15.90;99.90
18103;DHT22;9178;51.120;6.192;2023-10-09T08:09:08;16.00;99.90
18103;DHT22;9178;51.120;6.192;2023-10-09T08:11:53;16.10;99.90
18103;DHT22;9178;51.120;6.192;2023-10-09T08:14:41;16.20;99.90
18103;DHT22;9178;51.120;6.192;2023-10-09T08:17:11;16.20;99.90
18103;DHT22;9178;51.120;6.192;2023-10-09T08:19:42;16.20;99.90
18103;DHT22;9178;51.120;6.192;2023-10-09T08:22:24;16.30;99.90
18103;DHT22;9178;51.120;6.192;2023-10-09T08:25:10;16.30;99.90
18103;DHT22;9178;51.120;6.192;2023-10-09T08:27:54;16.30;99.90
18103;DHT22;9178;51.120;6.192;2023-10-09T08:30:23;16.30;99.90
18103;DHT22;9178;51.120;6.192;2023-10-09T08:33:06;16.40;99.90
18103;DHT22;9178;51.120;6.192;2023-10-09T08:35:47;16.50;99.90
18103;DHT22;9178;51.120;6.192;2023-10-09T08:38:17;16.60;99.90
18103;DHT22;9178;51.120;6.192;2023-10-09T08:40:50;16.60;99.90
18103;DHT22;9178;51.120;6.192;2023-10-09T08:43:21;16.70;99.90
18103;DHT22;9178;51.120;6.192;2023-10-09T08:45:52;16.70;99.90
18103;DHT22;9178;51.120;6.192;2023-10-09T08:48:20;16.80;99.90
18103;DHT22;9178;51.120;6.192;2023-10-09T08:50:49;16.80;99.90
18103;DHT22;9178;51.120;6.192;2023-10-09T08:53:17;16.80;99.90
18103;DHT22;9178;51.120;6.192;2023-10-09T08:55:44;16.80;99.90
18103;DHT22;9178;51.120;6.192;2023-10-09T08:58:15;16.80;99.90
18103;DHT22;9178;51.120;6.192;2023-10-09T09:00:47;16.80;99.90
18103;DHT22;9178;51.120;6.192;2023-10-09T09:03:17;16.90;99.90
18103;DHT22;9178;51.120;6.192;2023-10-09T09:05:46;16.90;99.90
18103;DHT22;9178;51.120;6.192;2023-10-09T09:08:24;17.00;99.90
18103;DHT22;9178;51.120;6.192;2023-10-09T09:10:57;17.10;99.90
18103;DHT22;9178;51.120;6.192;2023-10-09T09:13:33;17.10;99.90
18103;DHT22;9178;51.120;6.192;2023-10-09T09:16:00;17.20;99.90
18103;DHT22;9178;51.120;6.192;2023-10-09T09:18:29;17.30;99.90
18103;DHT22;9178;51.120;6.192;2023-10-09T09:21:17;17.40;99.90
18103;DHT22;9178;51.120;6.192;2023-10-09T09:23:54;17.50;99.90
18103;DHT22;9178;51.120;6.192;2023-10-09T09:26:37;17.60;99.90
18103;DHT22;9178;51.120;6.192;2023-10-09T09:29:11;17.70;99.90
18103;DHT22;9178;51.120;6.192;2023-10-09T09:31:38;17.70;99.90
18103;DHT22;9178;51.120;6.192;2023-10-09T09:34:08;17.80;99.90
18103;DHT22;9178;51.120;6.192;2023-10-09T09:36:54;17.80;99.90
18103;DHT22;9178;51.120;6.192;2023-10-09T09:39:22;17.90;99.90
18103;DHT22;9178;51.120;6.192;2023-10-09T09:41:58;18.00;99.90
18103;DHT22;9178;51.120;6.192;2023-10-09T09:44:33;18.00;99.90
18103;DHT22;9178;51.120;6.192;2023-10-09T09:47:09;18.10;99.90
18103;DHT22;9178;51.120;6.192;2023-10-09T09:49:41;18.20;99.90
18103;DHT22;9178;51.120;6.192;2023-10-09T09:52:09;18.30;99.90
18103;DHT22;9178;51.120;6.192;2023-10-09T09:54:37;18.40;99.90
18103;DHT22;9178;51.120;6.192;2023-10-09T09:57:05;18.50;99.90
18103;DHT22;9178;51.120;6.192;2023-10-09T09:59:38;18.60;99.90
18103;DHT22;9178;51.120;6.192;2023-10-09T10:02:22;18.60;99.90
18103;DHT22;9178;51.120;6.192;2023-10-09T10:04:55;18.70;99.90
18103;DHT22;9178;51.120;6.192;2023-10-09T10:07:24;18.70;99.90
18103;DHT22;9178;51.120;6.192;2023-10-09T10:09:54;18.80;99.90
18103;DHT22;9178;51.120;6.192;2023-10-09T10:12:51;18.90;99.90
18103;DHT22;9178;51.120;6.192;2023-10-09T10:15:59;18.90;99.90
18103;DHT22;9178;51.120;6.192;2023-10-09T10:18:31;19.00;99.90
18103;DHT22;9178;51.120;6.192;2023-10-09T10:21:14;19.10;99.90
18103;DHT22;9178;51.120;6.192;2023-10-09T10:23:42;19.10;99.90
18103;DHT22;9178;51.120;6.192;2023-10-09T10:26:21;19.20;99.90
18103;DHT22;9178;51.120;6.192;2023-10-09T10:29:15;19.20;99.90
18103;DHT22;9178;51.120;6.192;2023-10-09T10:31:53;19.20;99.90
18103;DHT22;9178;51.120;6.192;2023-10-09T10:34:22;19.30;99.90
18103;DHT22;9178;51.120;6.192;2023-10-09T10:36:52;19.30;99.90
18103;DHT22;9178;51.120;6.192;2023-10-09T10:39:25;19.40;99.90
18103;DHT22;9178;51.120;6.192;2023-10-09T10:42:14;19.40;99.90
18103;DHT22;9178;51.120;6.192;2023-10-09T10:45:03;19.40;99.90
18103;DHT22;9178;51.120;6.192;2023-10-09T10:47:50;19.50;99.90
18103;DHT22;9178;51.120;6.192;2023-10-09T10:50:22;19.50;99.90
18103;DHT22;9178;51.120;6.192;2023-10-09T10:53:11;19.60;99.90
18103;DHT22;9178;51.120;6.192;2023-10-09T10:55:58;19.70;99.90
18103;DHT22;9178;51.120;6.192;2023-10-09T10:58:43;19.60;99.90
18103;DHT22;9178;51.120;6.192;2023-10-09T11:01:37;19.70;99.90
18103;DHT22;9178;51.120;6.192;2023-10-09T11:04:27;19.70;99.90
18103;DHT22;9178;51.120;6.192;2023-10-09T11:07:07;19.80;99.90
18103;DHT22;9178;51.120;6.192;2023-10-09T11:09:47;19.80;99.90
18103;DHT22;9178;51.120;6.192;2023-10-09T11:12:42;19.80;99.90
18103;DHT22;9178;51.120;6.192;2023-10-09T11:15:32;19.80;99.90
18103;DHT22;9178;51.120;6.192;2023-10-09T11:18:10;20.00;99.90
18103;DHT22;9178;51.120;6.192;2023-10-09T11:20:48;20.10;99.90
18103;DHT22;9178;51.120;6.192;2023-10-09T11:23:23;20.10;99.90
18103;DHT22;9178;51.120;6.192;2023-10-09T11:26:06;20.10;99.90
18103;DHT22;9178;51.120;6.192;2023-10-09T11:29:06;20.10;99.90
18103;DHT22;9178;51.120;6.192;2023-10-09T11:31:39;20.10;99.90
18103;DHT22;9178;51.120;6.192;2023-10-09T11:34:18;20.10;99.90
18103;DHT22;9178;51.120;6.192;2023-10-09T11:36:55;20.10;99.90
18103;DHT22;9178;51.120;6.192;2023-10-09T11:39:29;20.10;99.90
18103;DHT22;9178;51.120;6.192;2023-10-09T11:42:14;20.20;99.90
18103;DHT22;9178;51.120;6.192;2023-10-09T11:44:57;20.30;99.90
18103;DHT22;9178;51.120;6.192;2023-10-09T11:47:34;20.30;99.90
18103;DHT22;9178;51.120;6.192;2023-10-09T11:50:01;20.30;99.90
18103;DHT22;9178;51.120;6.192;2023-10-09T11:52:56;20.40;99.90
18103;DHT22;9178;51.120;6.192;2023-10-09T11:55:35;20.40;99.90
18103;DHT22;9178;51.120;6.192;2023-10-09T11:58:03;20.50;99.90
18103;DHT22;9178;51.120;6.192;2023-10-09T12:00:32;20.50;99.90
18103;DHT22;9178;51.120;6.192;2023-10-09T12:03:10;20.60;99.90
18103;DHT22;9178;51.120;6.192;2023-10-09T12:05:40;20.60;99.90
18103;DHT22;9178;51.120;6.192;2023-10-09T12:08:14;20.60;99.90
18103;DHT22;9178;51.120;6.192;2023-10-09T12:10:42;20.60;99.90
18103;DHT22;9178;51.120;6.192;2023-10-09T12:13:11;20.70;99.90
18103;DHT22;9178;51.120;6.192;2023-10-09T12:15:41;20.80;99.90
18103;DHT22;9178;51.120;6.192;2023-10-09T12:18:12;20.90;99.90
18103;DHT22;9178;51.120;6.192;2023-10-09T12:20:41;21.00;99.90
18103;DHT22;9178;51.120;6.192;2023-10-09T12:23:15;21.00;99.90
18103;DHT22;9178;51.120;6.192;2023-10-09T12:25:42;20.90;99.90
18103;DHT22;9178;51.120;6.192;2023-10-09T12:28:12;21.00;99.90
18103;DHT22;9178;51.120;6.192;2023-10-09T12:30:39;21.00;99.90
18103;DHT22;9178;51.120;6.192;2023-10-09T12:33:08;21.10;99.90
18103;DHT22;9178;51.120;6.192;2023-10-09T12:35:39;21.10;99.90
18103;DHT22;9178;51.120;6.192;2023-10-09T12:38:09;21.20;99.90
18103;DHT22;9178;51.120;6.192;2023-10-09T12:40:38;21.20;99.90
18103;DHT22;9178;51.120;6.192;2023-10-09T12:43:07;21.20;99.90
18103;DHT22;9178;51.120;6.192;2023-10-09T12:45:42;21.20;99.90
18103;DHT22;9178;51.120;6.192;2023-10-09T12:48:10;21.10;99.90
18103;DHT22;9178;51.120;6.192;2023-10-09T12:50:40;21.10;99.90
18103;DHT22;9178;51.120;6.192;2023-10-09T12:53:10;21.10;99.90
18103;DHT22;9178;51.120;6.192;2023-10-09T12:55:43;21.10;99.90
18103;DHT22;9178;51.120;6.192;2023-10-09T12:58:11;21.10;99.90
18103;DHT22;9178;51.120;6.192;2023-10-09T13:00:43;21.00;99.90
18103;DHT22;9178;51.120;6.192;2023-10-09T13:03:16;21.10;99.90
18103;DHT22;9178;51.120;6.192;2023-10-09T13:05:44;21.00;99.90
18103;DHT22;9178;51.120;6.192;2023-10-09T13:08:21;21.00;99.90
18103;DHT22;9178;51.120;6.192;2023-10-09T13:10:49;21.00;99.90
18103;DHT22;9178;51.120;6.192;2023-10-09T13:13:25;20.90;99.90
18103;DHT22;9178;51.120;6.192;2023-10-09T13:16:12;21.00;99.90
18103;DHT22;9178;51.120;6.192;2023-10-09T13:18:46;21.10;99.90
18103;DHT22;9178;51.120;6.192;2023-10-09T13:21:17;21.10;99.90
18103;DHT22;9178;51.120;6.192;2023-10-09T13:23:44;21.10;99.90
18103;DHT22;9178;51.120;6.192;2023-10-09T13:26:15;21.10;99.90
18103;DHT22;9178;51.120;6.192;2023-10-09T13:28:50;21.20;99.90
18103;DHT22;9178;51.120;6.192;2023-10-09T13:31:19;21.10;99.90
18103;DHT22;9178;51.120;6.192;2023-10-09T13:33:50;21.10;99.90
18103;DHT22;9178;51.120;6.192;2023-10-09T13:36:20;21.20;99.90
18103;DHT22;9178;51.120;6.192;2023-10-09T13:38:53;21.20;99.90
18103;DHT22;9178;51.120;6.192;2023-10-09T13:41:21;21.30;99.90
18103;DHT22;9178;51.120;6.192;2023-10-09T13:43:51;21.40;99.90
18103;DHT22;9178;51.120;6.192;2023-10-09T13:46:20;21.40;99.90
18103;DHT22;9178;51.120;6.192;2023-10-09T13:48:48;21.30;99.90
18103;DHT22;9178;51.120;6.192;2023-10-09T13:51:15;21.20;99.90
18103;DHT22;9178;51.120;6.192;2023-10-09T13:53:44;21.10;99.90
18103;DHT22;9178;51.120;6.192;2023-10-09T13:56:14;21.00;99.90
18103;DHT22;9178;51.120;6.192;2023-10-09T13:58:45;21.00;99.90
18103;DHT22;9178;51.120;6.192;2023-10-09T14:01:12;20.90;99.90
18103;DHT22;9178;51.120;6.192;2023-10-09T14:03:47;20.90;99.90
18103;DHT22;9178;51.120;6.192;2023-10-09T14:06:18;20.80;99.90
18103;DHT22;9178;51.120;6.192;2023-10-09T14:08:56;20.80;99.90
18103;DHT22;9178;51.120;6.192;2023-10-09T14:11:24;20.80;99.90
18103;DHT22;9178;51.120;6.192;2023-10-09T14:13:52;20.70;99.90
18103;DHT22;9178;51.120;6.192;2023-10-09T14:16:21;20.70;99.90
18103;DHT22;9178;51.120;6.192;2023-10-09T14:18:55;20.60;99.90
18103;DHT22;9178;51.120;6.192;2023-10-09T14:21:26;20.60;99.90
18103;DHT22;9178;51.120;6.192;2023-10-09T14:23:56;20.60;99.90
18103;DHT22;9178;51.120;6.192;2023-10-09T14:26:27;20.60;99.90
18103;DHT22;9178;51.120;6.192;2023-10-09T14:29:03;20.60;99.90
18103;DHT22;9178;51.120;6.192;2023-10-09T14:31:32;20.50;99.90
18103;DHT22;9178;51.120;6.192;2023-10-09T14:34:11;20.50;99.90
18103;DHT22;9178;51.120;6.192;2023-10-09T14:36:39;20.50;99.90
18103;DHT22;9178;51.120;6.192;2023-10-09T14:39:09;20.40;99.90
18103;DHT22;9178;51.120;6.192;2023-10-09T14:41:41;20.50;99.90
18103;DHT22;9178;51.120;6.192;2023-10-09T14:44:08;20.50;99.90
18103;DHT22;9178;51.120;6.192;2023-10-09T14:46:42;20.50;99.90
18103;DHT22;9178;51.120;6.192;2023-10-09T14:49:13;20.50;99.90
18103;DHT22;9178;51.120;6.192;2023-10-09T14:51:43;20.50;99.90
18103;DHT22;9178;51.120;6.192;2023-10-09T14:54:11;20.50;99.90
18103;DHT22;9178;51.120;6.192;2023-10-09T14:56:43;20.50;99.90
18103;DHT22;9178;51.120;6.192;2023-10-09T14:59:11;20.40;99.90
18103;DHT22;9178;51.120;6.192;2023-10-09T15:01:38;20.40;99.90
18103;DHT22;9178;51.120;6.192;2023-10-09T15:04:05;20.40;99.90
18103;DHT22;9178;51.120;6.192;2023-10-09T15:06:34;20.40;99.90
18103;DHT22;9178;51.120;6.192;2023-10-09T15:09:04;20.30;99.90
18103;DHT22;9178;51.120;6.192;2023-10-09T15:11:35;20.30;99.90
18103;DHT22;9178;51.120;6.192;2023-10-09T15:14:06;20.20;99.90
18103;DHT22;9178;51.120;6.192;2023-10-09T15:16:34;20.20;99.90
18103;DHT22;9178;51.120;6.192;2023-10-09T15:19:04;20.20;99.90
18103;DHT22;9178;51.120;6.192;2023-10-09T15:21:35;20.20;99.90
18103;DHT22;9178;51.120;6.192;2023-10-09T15:24:09;20.10;99.90
18103;DHT22;9178;51.120;6.192;2023-10-09T15:26:40;20.10;99.90
18103;DHT22;9178;51.120;6.192;2023-10-09T15:29:07;19.90;99.90
18103;DHT22;9178;51.120;6.192;2023-10-09T15:31:35;19.90;99.90
18103;DHT22;9178;51.120;6.192;2023-10-09T15:34:02;19.80;99.90
18103;DHT22;9178;51.120;6.192;2023-10-09T15:36:36;19.80;99.90
18103;DHT22;9178;51.120;6.192;2023-10-09T15:39:06;19.70;99.90
18103;DHT22;9178;51.120;6.192;2023-10-09T15:41:38;19.70;99.90
18103;DHT22;9178;51.120;6.192;2023-10-09T15:44:07;19.60;99.90
18103;DHT22;9178;51.120;6.192;2023-10-09T15:46:34;19.60;99.90
18103;DHT22;9178;51.120;6.192;2023-10-09T15:49:01;19.50;99.90
18103;DHT22;9178;51.120;6.192;2023-10-09T15:51:28;19.50;99.90
18103;DHT22;9178;51.120;6.192;2023-10-09T15:53:57;19.50;99.90
18103;DHT22;9178;51.120;6.192;2023-10-09T15:56:26;19.40;99.90
18103;DHT22;9178;51.120;6.192;2023-10-09T15:58:55;19.40;99.90
18103;DHT22;9178;51.120;6.192;2023-10-09T16:01:22;19.30;99.90
18103;DHT22;9178;51.120;6.192;2023-10-09T16:03:49;19.30;99.90
18103;DHT22;9178;51.120;6.192;2023-10-09T16:06:17;19.30;99.90
18103;DHT22;9178;51.120;6.192;2023-10-09T16:08:46;19.30;99.90
18103;DHT22;9178;51.120;6.192;2023-10-09T16:11:18;19.30;99.90
18103;DHT22;9178;51.120;6.192;2023-10-09T16:13:45;19.30;99.90
18103;DHT22;9178;51.120;6.192;2023-10-09T16:16:12;19.30;99.90
18103;DHT22;9178;51.120;6.192;2023-10-09T16:18:40;19.20;99.90
18103;DHT22;9178;51.120;6.192;2023-10-09T16:21:08;19.20;99.90
18103;DHT22;9178;51.120;6.192;2023-10-09T16:23:38;19.10;99.90
18103;DHT22;9178;51.120;6.192;2023-10-09T16:26:04;19.10;99.90
18103;DHT22;9178;51.120;6.192;2023-10-09T16:28:34;19.00;99.90
18103;DHT22;9178;51.120;6.192;2023-10-09T16:31:02;19.00;99.90